createdAt,value
2018-05-15T00:01:16.285Z,97947.02
2018-05-15T00:03:44.399Z,97946.95
2018-05-15T00:06:12.518Z,97945.09
2018-05-15T00:08:40.646Z,97946.30
2018-05-15T00:11:08.770Z,97951.45
2018-05-15T00:13:36.909Z,97946.63
2018-05-15T00:16:05.029Z,97940.93
2018-05-15T00:18:33.154Z,97942.03
2018-05-15T00:21:01.287Z,97946.88
2018-05-15T00:23:29.425Z,97948.48
2018-05-15T00:25:57.565Z,97943.81
2018-05-15T00:28:25.698Z,97942.06
2018-05-15T00:30:53.905Z,97944.26
2018-05-15T00:33:22.033Z,97945.05
2018-05-15T00:35:50.156Z,97945.94
2018-05-15T00:38:18.297Z,97941.19
2018-05-15T00:40:46.421Z,97950.50
2018-05-15T00:43:14.533Z,97948.53
2018-05-15T00:45:42.672Z,97950.33
2018-05-15T00:48:10.959Z,97939.32
2018-05-15T00:50:39.091Z,97948.35
2018-05-15T00:53:07.307Z,97950.09
2018-05-15T00:55:44.148Z,97948.84
2018-05-15T00:58:12.277Z,97950.06
2018-05-15T01:00:40.407Z,97946.92
2018-05-15T01:03:08.562Z,97953.41
2018-05-15T01:05:36.669Z,97950.58
2018-05-15T01:08:04.803Z,97949.23
2018-05-15T01:10:32.953Z,97946.62
2018-05-15T01:13:01.082Z,97945.16
2018-05-15T01:15:29.208Z,97942.02
2018-05-15T01:17:57.336Z,97938.88
2018-05-15T01:20:25.621Z,97944.78
2018-05-15T01:22:53.759Z,97944.36
2018-05-15T01:25:21.894Z,97950.34
2018-05-15T01:27:50.020Z,97949.53
2018-05-15T01:30:18.134Z,97941.05
2018-05-15T01:32:46.251Z,97945.17
2018-05-15T01:35:14.387Z,97943.30
2018-05-15T01:37:42.496Z,97945.01
2018-05-15T01:40:10.617Z,97936.35
2018-05-15T01:42:40.085Z,97937.73
2018-05-15T01:45:08.200Z,97927.64
2018-05-15T01:47:36.361Z,97932.80
2018-05-15T01:50:04.539Z,97934.11
2018-05-15T01:52:32.655Z,97936.03
2018-05-15T01:55:00.782Z,97931.43
2018-05-15T01:57:28.903Z,97928.41
2018-05-15T01:59:57.807Z,97934.55
2018-05-15T02:02:25.938Z,97936.61
2018-05-15T02:04:54.059Z,97932.38
2018-05-15T02:07:22.183Z,97935.77
2018-05-15T02:09:50.325Z,97935.86
2018-05-15T02:12:18.464Z,97938.00
2018-05-15T02:14:46.582Z,97935.10
2018-05-15T02:17:14.705Z,97935.00
2018-05-15T02:19:42.861Z,97940.12
2018-05-15T02:22:10.989Z,97931.43
2018-05-15T02:24:40.251Z,97930.82
2018-05-15T02:27:08.398Z,97934.30
2018-05-15T02:29:36.528Z,97937.68
2018-05-15T02:32:04.652Z,97939.31
2018-05-15T02:34:32.790Z,97940.63
2018-05-15T02:37:00.925Z,97939.61
2018-05-15T02:39:29.060Z,97935.22
2018-05-15T02:41:57.200Z,97938.48
2018-05-15T02:44:25.321Z,97936.17
2018-05-15T02:46:53.447Z,97946.77
2018-05-15T02:49:21.580Z,97940.88
2018-05-15T02:51:49.728Z,97943.09
2018-05-15T02:54:17.914Z,97936.92
2018-05-15T02:56:46.106Z,97941.02
2018-05-15T02:59:14.186Z,97942.32
2018-05-15T03:01:42.337Z,97942.52
2018-05-15T03:04:10.499Z,97936.34
2018-05-15T03:06:38.642Z,97943.14
2018-05-15T03:09:06.839Z,97941.58
2018-05-15T03:11:34.978Z,97945.06
2018-05-15T03:14:03.108Z,97945.21
2018-05-15T03:16:31.236Z,97941.84
2018-05-15T03:18:59.373Z,97947.61
2018-05-15T03:21:27.506Z,97948.01
2018-05-15T03:23:55.643Z,97943.05
2018-05-15T03:26:23.801Z,97940.98
2018-05-15T03:28:51.926Z,97936.38
2018-05-15T03:31:20.060Z,97936.96
2018-05-15T03:33:48.207Z,97937.96
2018-05-15T03:36:16.342Z,97936.42
2018-05-15T03:38:44.472Z,97947.33
2018-05-15T03:41:12.614Z,97941.05
2018-05-15T03:43:40.741Z,97935.53
2018-05-15T03:46:08.898Z,97942.89
2018-05-15T03:48:37.022Z,97947.70
2018-05-15T03:51:05.158Z,97943.30
2018-05-15T03:53:33.303Z,97948.94
2018-05-15T03:56:01.437Z,97953.61
2018-05-15T03:58:29.558Z,97952.80
2018-05-15T04:01:09.310Z,97955.09
2018-05-15T04:03:49.138Z,97960.14
2018-05-15T04:06:29.129Z,97960.70
2018-05-15T04:08:57.294Z,97964.58
2018-05-15T04:11:25.418Z,97961.84
2018-05-15T04:13:53.546Z,97964.14
2018-05-15T04:16:21.690Z,97971.09
2018-05-15T04:18:49.824Z,97967.46
2018-05-15T04:21:18.247Z,97971.54
2018-05-15T04:23:46.388Z,97975.13
2018-05-15T04:26:14.522Z,97975.33
2018-05-15T04:28:42.663Z,97977.92
2018-05-15T04:31:10.790Z,97977.26
2018-05-15T04:33:38.934Z,97977.77
2018-05-15T04:36:07.070Z,97978.22
2018-05-15T04:38:35.209Z,97979.42
2018-05-15T04:41:03.338Z,97978.69
2018-05-15T04:43:31.531Z,97975.25
2018-05-15T04:45:59.607Z,97977.23
2018-05-15T04:48:27.757Z,97981.94
2018-05-15T04:50:55.879Z,97982.72
2018-05-15T04:53:24.026Z,97985.91
2018-05-15T04:55:52.153Z,97979.34
2018-05-15T04:58:20.296Z,97975.78
2018-05-15T05:00:48.426Z,97972.91
2018-05-15T05:03:16.555Z,97974.13
2018-05-15T05:05:44.726Z,97974.28
2018-05-15T05:08:12.865Z,97974.00
2018-05-15T05:10:40.999Z,97974.39
2018-05-15T05:13:09.168Z,97980.30
2018-05-15T05:15:37.295Z,97972.09
2018-05-15T05:18:05.436Z,97977.30
2018-05-15T05:20:33.564Z,97975.33
2018-05-15T05:23:01.723Z,97974.52
2018-05-15T05:25:30.236Z,97974.98
2018-05-15T05:27:58.379Z,97972.17
2018-05-15T05:30:26.509Z,97969.64
2018-05-15T05:32:54.647Z,97979.66
2018-05-15T05:35:22.786Z,97977.14
2018-05-15T05:37:50.915Z,97977.88
2018-05-15T05:40:19.072Z,97980.39
2018-05-15T05:42:47.217Z,97978.55
2018-05-15T05:45:15.361Z,97982.29
2018-05-15T05:47:43.488Z,97985.14
2018-05-15T05:50:11.619Z,97977.89
2018-05-15T05:52:39.751Z,97979.88
2018-05-15T05:55:07.908Z,97980.33
2018-05-15T05:57:36.038Z,97975.78
2018-05-15T06:00:04.184Z,97981.41
2018-05-15T06:02:32.295Z,97982.47
2018-05-15T06:05:00.444Z,97980.87
2018-05-15T06:07:28.627Z,97983.65
2018-05-15T06:09:56.725Z,97986.17
2018-05-15T06:12:24.876Z,97976.13
2018-05-15T06:14:53.033Z,97981.81
2018-05-15T06:17:21.177Z,97985.19
2018-05-15T06:19:50.593Z,97987.61
2018-05-15T06:22:18.716Z,97990.55
2018-05-15T06:24:46.854Z,97992.64
2018-05-15T06:27:15.001Z,97992.96
2018-05-15T06:29:43.155Z,97988.20
2018-05-15T06:32:11.306Z,97992.52
2018-05-15T06:34:39.444Z,97996.91
2018-05-15T06:37:07.654Z,97990.62
2018-05-15T06:39:35.794Z,97996.47
2018-05-15T06:42:03.956Z,97996.92
2018-05-15T06:44:32.091Z,97992.12
2018-05-15T06:47:00.235Z,97995.77
2018-05-15T06:49:28.386Z,97994.41
2018-05-15T06:51:56.531Z,97996.39
2018-05-15T06:54:24.667Z,97991.02
2018-05-15T06:56:52.842Z,97998.28
2018-05-15T06:59:20.980Z,97994.96
2018-05-15T07:01:49.126Z,97994.39
2018-05-15T07:04:17.254Z,97993.22
2018-05-15T07:06:45.378Z,97992.64
2018-05-15T07:09:13.504Z,97989.02
2018-05-15T07:11:41.700Z,97995.16
2018-05-15T07:14:09.932Z,97991.44
2018-05-15T07:16:37.977Z,97998.68
2018-05-15T07:19:06.217Z,97999.06
2018-05-15T07:21:34.366Z,98005.06
2018-05-15T07:24:02.502Z,98011.06
2018-05-15T07:26:30.667Z,98009.69
2018-05-15T07:28:58.810Z,98016.97
2018-05-15T07:31:26.939Z,98010.78
2018-05-15T07:33:55.113Z,98007.76
2018-05-15T07:36:23.255Z,98013.13
2018-05-15T07:38:51.395Z,98018.58
2018-05-15T07:41:19.569Z,98016.53
2018-05-15T07:43:47.713Z,98019.28
2018-05-15T07:46:15.843Z,98021.66
2018-05-15T07:48:43.990Z,98013.59
2018-05-15T07:51:12.178Z,98019.23
2018-05-15T07:53:40.397Z,98016.73
2018-05-15T07:56:08.464Z,98020.84
2018-05-15T07:58:36.581Z,98024.56
2018-05-15T08:01:04.706Z,98022.02
2018-05-15T08:03:32.843Z,98021.97
2018-05-15T08:06:01.000Z,98018.64
2018-05-15T08:08:29.151Z,98024.98
2018-05-15T08:10:57.289Z,98023.08
2018-05-15T08:13:25.440Z,98031.91
2018-05-15T08:15:53.586Z,98024.49
2018-05-15T08:18:21.751Z,98030.81
2018-05-15T08:20:49.887Z,98031.88
2018-05-15T08:23:18.032Z,98031.93
2018-05-15T08:25:46.185Z,98034.03
2018-05-15T08:28:14.315Z,98037.48
2018-05-15T08:30:42.483Z,98032.70
2018-05-15T08:33:10.611Z,98041.55
2018-05-15T08:35:38.748Z,98039.98
2018-05-15T08:38:07.784Z,98035.80
2018-05-15T08:40:35.928Z,98040.06
2018-05-15T08:43:04.049Z,98040.89
2018-05-15T08:45:32.931Z,98046.41
2018-05-15T08:48:01.067Z,98044.25
2018-05-15T08:50:29.225Z,98053.12
2018-05-15T08:52:57.363Z,98046.53
2018-05-15T08:55:25.507Z,98053.84
2018-05-15T08:57:53.634Z,98048.78
2018-05-15T09:00:21.773Z,98052.80
2018-05-15T09:02:49.928Z,98059.05
2018-05-15T09:05:18.077Z,98068.87
2018-05-15T09:07:46.193Z,98069.75
2018-05-15T09:10:14.343Z,98080.28
2018-05-15T09:12:42.479Z,98085.41
2018-05-15T09:15:10.619Z,98086.62
2018-05-15T09:17:38.800Z,98089.30
2018-05-15T09:20:06.936Z,98090.21
2018-05-15T09:22:35.070Z,98089.63
2018-05-15T09:25:03.223Z,98096.62
2018-05-15T09:27:31.358Z,98093.91
2018-05-15T09:29:59.507Z,98099.12
2018-05-15T09:32:27.629Z,98103.83
2018-05-15T09:34:55.783Z,98108.98
2018-05-15T09:37:23.912Z,98103.95
2018-05-15T09:39:52.070Z,98107.08
2018-05-15T09:42:20.231Z,98110.55
2018-05-15T09:44:48.376Z,98113.85
2018-05-15T09:47:16.516Z,98114.55
2018-05-15T09:49:44.650Z,98107.30
2018-05-15T09:52:12.789Z,98109.99
2018-05-15T09:54:40.929Z,98118.43
2018-05-15T09:57:09.735Z,98122.95
2018-05-15T09:59:37.864Z,98123.86
2018-05-15T10:02:05.990Z,98129.17
2018-05-15T10:04:34.134Z,98124.95
2018-05-15T10:07:02.276Z,98124.52
2018-05-15T10:09:30.463Z,98125.95
2018-05-15T10:11:58.613Z,98128.69
2018-05-15T10:14:26.743Z,98128.66
2018-05-15T10:16:54.881Z,98133.15
2018-05-15T10:19:23.024Z,98135.22
2018-05-15T10:21:51.187Z,98139.53
2018-05-15T10:24:19.356Z,98139.30
2018-05-15T10:26:47.510Z,98140.52
2018-05-15T10:29:15.636Z,98140.23
2018-05-15T10:31:43.799Z,98141.95
2018-05-15T10:34:11.945Z,98149.09
2018-05-15T10:36:40.073Z,98144.51
2018-05-15T10:39:08.227Z,98148.24
2018-05-15T10:41:36.365Z,98144.73
2018-05-15T10:44:04.618Z,98156.98
2018-05-15T10:46:32.747Z,98159.73
2018-05-15T10:49:00.891Z,98150.55
2018-05-15T10:51:29.025Z,98151.23
2018-05-15T10:53:57.174Z,98154.09
2018-05-15T10:56:25.301Z,98157.95
2018-05-15T10:58:53.429Z,98163.14
2018-05-15T11:01:21.561Z,98159.45
2018-05-15T11:03:49.691Z,98160.75
2018-05-15T11:06:17.887Z,98160.55
2018-05-15T11:08:45.976Z,98157.77
2018-05-15T11:11:14.108Z,98160.16
2018-05-15T11:13:42.226Z,98159.08
2018-05-15T11:16:10.368Z,98158.38
2018-05-15T11:18:46.299Z,98159.60
2018-05-15T11:21:26.012Z,98157.77
2018-05-15T11:26:56.942Z,98150.85
2018-05-15T11:29:25.071Z,98152.95
2018-05-15T11:31:53.222Z,98159.41
2018-05-15T11:34:21.352Z,98154.10
2018-05-15T11:36:49.488Z,98156.89
2018-05-15T11:39:17.634Z,98159.25
2018-05-15T11:41:45.825Z,98154.47
2018-05-15T11:44:13.904Z,98162.54
2018-05-15T11:46:42.065Z,98164.39
2018-05-15T11:49:11.051Z,98160.45
2018-05-15T11:51:39.308Z,98156.19
2018-05-15T11:54:06.911Z,98155.28
2018-05-15T11:56:35.116Z,98156.44
2018-05-15T11:59:03.172Z,98157.66
2018-05-15T12:01:31.335Z,98164.30
2018-05-15T12:03:59.533Z,98158.27
2018-05-15T12:06:27.708Z,98157.91
2018-05-15T12:08:55.755Z,98159.27
2018-05-15T12:11:23.894Z,98160.91
2018-05-15T12:13:52.037Z,98155.29
2018-05-15T12:16:20.150Z,98157.30
2018-05-15T12:18:48.295Z,98158.84
2018-05-15T12:21:16.423Z,98156.55
2018-05-15T12:23:44.562Z,98164.17
2018-05-15T12:26:12.695Z,98161.06
2018-05-15T12:28:40.816Z,98159.59
2018-05-15T12:31:08.952Z,98158.52
2018-05-15T12:33:37.108Z,98167.24
2018-05-15T12:36:05.711Z,98163.19
2018-05-15T12:38:33.851Z,98163.52
2018-05-15T12:41:01.985Z,98165.89
2018-05-15T12:43:30.116Z,98161.67
2018-05-15T12:45:58.251Z,98153.96
2018-05-15T12:48:26.476Z,98157.34
2018-05-15T12:50:54.536Z,98160.50
2018-05-15T12:53:22.657Z,98155.03
2018-05-15T12:55:50.786Z,98161.56
2018-05-15T12:58:18.927Z,98160.02
2018-05-15T13:00:47.052Z,98160.13
2018-05-15T13:03:15.171Z,98166.91
2018-05-15T13:05:43.306Z,98171.20
2018-05-15T13:08:12.368Z,98162.94
2018-05-15T13:10:40.506Z,98162.40
2018-05-15T13:13:08.621Z,98165.67
2018-05-15T13:15:36.747Z,98161.83
2018-05-15T13:18:04.881Z,98157.55
2018-05-15T13:20:33.007Z,98158.86
2018-05-15T13:23:01.168Z,98158.31
2018-05-15T13:25:29.309Z,98155.02
2018-05-15T13:27:57.453Z,98155.43
2018-05-15T13:30:25.574Z,98155.98
2018-05-15T13:32:53.705Z,98154.14
2018-05-15T13:35:21.847Z,98146.88
2018-05-15T13:37:49.974Z,98150.17
2018-05-15T13:40:18.129Z,98150.61
2018-05-15T13:42:46.261Z,98152.86
2018-05-15T13:45:14.629Z,98151.82
2018-05-15T13:47:42.539Z,98153.86
2018-05-15T13:50:10.668Z,98151.80
2018-05-15T13:52:39.358Z,98152.94
2018-05-15T13:55:07.508Z,98153.99
2018-05-15T13:57:35.637Z,98152.50
2018-05-15T14:00:03.785Z,98152.25
2018-05-15T14:02:31.921Z,98159.92
2018-05-15T14:05:00.050Z,98156.77
2018-05-15T14:07:28.181Z,98154.69
2018-05-15T14:09:56.330Z,98150.83
2018-05-15T14:12:24.506Z,98157.81
2018-05-15T14:14:52.590Z,98150.29
2018-05-15T14:17:20.728Z,98158.84
2018-05-15T14:19:48.848Z,98155.74
2018-05-15T14:22:16.977Z,98157.60
2018-05-15T14:24:45.163Z,98154.88
2018-05-15T14:27:13.257Z,98148.30
2018-05-15T14:29:41.388Z,98146.09
2018-05-15T14:32:09.531Z,98146.98
2018-05-15T14:34:37.664Z,98154.19
2018-05-15T14:37:05.786Z,98161.22
2018-05-15T14:39:34.596Z,98151.48
2018-05-15T14:42:14.632Z,98156.67
2018-05-15T14:44:42.759Z,98157.35
2018-05-15T14:47:10.875Z,98165.99
2018-05-15T14:49:39.005Z,98162.88
2018-05-15T14:52:07.139Z,98166.83
2018-05-15T14:54:35.251Z,98170.19
2018-05-15T14:57:03.371Z,98166.85
2018-05-15T14:59:31.497Z,98164.05
2018-05-15T15:01:59.620Z,98166.09
2018-05-15T15:04:27.733Z,98164.87
2018-05-15T15:06:55.858Z,98167.77
2018-05-15T15:09:24.295Z,98166.10
2018-05-15T15:11:52.433Z,98161.12
2018-05-15T15:14:20.559Z,98147.48
2018-05-15T15:16:48.673Z,98152.53
2018-05-15T15:19:16.813Z,98151.64
2018-05-15T15:21:45.295Z,98159.97
2018-05-15T15:24:13.410Z,98157.89
2018-05-15T15:26:41.542Z,98149.28
2018-05-15T15:29:10.844Z,98148.33
2018-05-15T15:31:38.935Z,98142.43
2018-05-15T15:34:07.387Z,98151.95
2018-05-15T15:36:35.507Z,98145.23
2018-05-15T15:39:03.637Z,98156.15
2018-05-15T15:41:31.776Z,98150.58
2018-05-15T15:43:59.922Z,98144.87
2018-05-15T15:46:28.085Z,98146.48
2018-05-15T15:48:56.336Z,98140.08
2018-05-15T15:51:24.473Z,98141.02
2018-05-15T15:53:52.600Z,98144.42
2018-05-15T15:56:20.732Z,98137.17
2018-05-15T15:58:48.859Z,98138.68
2018-05-15T16:01:16.995Z,98133.87
2018-05-15T16:03:45.139Z,98141.22
2018-05-15T16:06:13.250Z,98135.52
2018-05-15T16:08:41.397Z,98135.39
2018-05-15T16:11:10.477Z,98124.31
2018-05-15T16:13:38.610Z,98136.30
2018-05-15T16:16:06.973Z,98133.47
2018-05-15T16:18:35.101Z,98135.78
2018-05-15T16:21:03.479Z,98134.20
2018-05-15T16:23:31.588Z,98136.22
2018-05-15T16:25:59.698Z,98134.75
2018-05-15T16:28:27.864Z,98136.02
2018-05-15T16:30:55.998Z,98132.52
2018-05-15T16:33:24.114Z,98135.64
2018-05-15T16:35:52.237Z,98134.86
2018-05-15T16:38:20.375Z,98125.63
2018-05-15T16:40:48.490Z,98125.65
2018-05-15T16:43:16.617Z,98127.25
2018-05-15T16:45:44.741Z,98122.91
2018-05-15T16:48:12.867Z,98126.35
2018-05-15T16:50:41.027Z,98120.81
2018-05-15T16:53:10.010Z,98097.67
2018-05-15T16:55:38.148Z,98117.36
2018-05-15T16:58:06.318Z,98122.19
2018-05-15T17:00:34.450Z,98116.41
2018-05-15T17:03:02.573Z,98123.56
2018-05-15T17:05:30.695Z,98117.38
2018-05-15T17:07:58.934Z,98116.15
2018-05-15T17:10:26.991Z,98114.46
2018-05-15T17:12:55.141Z,98112.95
2018-05-15T17:15:23.264Z,98113.60
2018-05-15T17:17:51.393Z,98109.09
2018-05-15T17:20:19.510Z,98106.73
2018-05-15T17:22:47.639Z,98113.74
2018-05-15T17:25:15.786Z,98108.38
2018-05-15T17:27:43.900Z,98110.59
2018-05-15T17:30:12.019Z,98108.06
2018-05-15T17:32:41.267Z,98108.22
2018-05-15T17:35:09.447Z,98107.78
2018-05-15T17:37:37.597Z,98106.59
2018-05-15T17:40:05.755Z,98110.51
2018-05-15T17:42:33.876Z,98104.38
2018-05-15T17:45:01.994Z,98104.80
2018-05-15T17:47:30.137Z,98103.59
2018-05-15T17:49:58.264Z,98099.97
2018-05-15T17:52:26.381Z,98093.84
2018-05-15T17:54:54.499Z,98090.90
2018-05-15T17:57:22.623Z,98090.09
2018-05-15T17:59:50.765Z,98086.04
2018-05-15T18:02:18.864Z,98082.27
2018-05-15T18:04:47.197Z,98081.84
2018-05-15T18:07:15.324Z,98085.86
2018-05-15T18:09:44.440Z,98084.01
2018-05-15T18:12:12.583Z,98083.34
2018-05-15T18:14:40.723Z,98088.72
2018-05-15T18:17:08.865Z,98084.84
2018-05-15T18:19:37.055Z,98088.45
2018-05-15T18:22:05.192Z,98092.63
2018-05-15T18:24:33.404Z,98092.36
2018-05-15T18:27:01.564Z,98089.68
2018-05-15T18:29:29.697Z,98094.24
2018-05-15T18:31:58.266Z,98095.17
2018-05-15T18:34:26.397Z,98100.92
2018-05-15T18:36:54.545Z,98096.08
2018-05-15T18:39:22.657Z,98095.55
2018-05-15T18:41:50.793Z,98093.28
2018-05-15T18:44:18.952Z,98098.78
2018-05-15T18:46:47.106Z,98100.38
2018-05-15T18:49:15.288Z,98107.08
2018-05-15T18:51:43.447Z,98106.97
2018-05-15T18:54:11.593Z,98105.48
2018-05-15T18:56:39.731Z,98102.80
2018-05-15T18:59:07.942Z,98107.91
2018-05-15T19:01:36.030Z,98113.52
2018-05-15T19:04:04.165Z,98115.81
2018-05-15T19:06:32.448Z,98116.36
2018-05-15T19:09:00.564Z,98115.02
2018-05-15T19:11:28.740Z,98112.09
2018-05-15T19:13:56.957Z,98112.34
2018-05-15T19:16:25.044Z,98112.89
2018-05-15T19:18:53.173Z,98112.22
2018-05-15T19:21:21.308Z,98111.69
2018-05-15T19:23:49.453Z,98105.67
2018-05-15T19:26:17.596Z,98116.09
2018-05-15T19:28:45.750Z,98115.98
2018-05-15T19:31:16.756Z,98114.64
2018-05-15T19:33:50.357Z,98119.07
2018-05-15T19:36:18.505Z,98115.31
2018-05-15T19:38:46.642Z,98113.86
2018-05-15T19:41:19.727Z,98108.78
2018-05-15T19:43:47.868Z,98117.45
2018-05-15T19:46:16.000Z,98113.44
2018-05-15T19:48:44.140Z,98115.31
2018-05-15T19:51:12.297Z,98113.73
2018-05-15T19:53:40.435Z,98118.15
2018-05-15T19:56:08.586Z,98118.80
2018-05-15T19:58:36.745Z,98121.61
2018-05-15T20:01:04.863Z,98127.36
2018-05-15T20:03:33.000Z,98127.76
2018-05-15T20:06:01.138Z,98122.16
2018-05-15T20:08:29.281Z,98128.32
2018-05-15T20:10:57.418Z,98124.97
2018-05-15T20:13:25.558Z,98121.35
2018-05-15T20:15:53.696Z,98118.27
2018-05-15T20:18:21.845Z,98126.42
2018-05-15T20:20:49.982Z,98121.34
2018-05-15T20:23:18.114Z,98127.38
2018-05-15T20:25:46.267Z,98122.95
2018-05-15T20:28:14.394Z,98124.53
2018-05-15T20:30:42.536Z,98130.69
2018-05-15T20:33:10.694Z,98135.80
2018-05-15T20:35:38.826Z,98140.87
2018-05-15T20:38:07.110Z,98137.27
2018-05-15T20:40:35.275Z,98135.12
2018-05-15T20:43:03.403Z,98134.18
2018-05-15T20:45:31.558Z,98139.93
2018-05-15T20:47:59.712Z,98143.25
2018-05-15T20:50:27.851Z,98143.94
2018-05-15T20:52:55.985Z,98140.97
2018-05-15T20:55:24.389Z,98144.73
2018-05-15T20:57:52.546Z,98147.41
2018-05-15T21:00:20.683Z,98142.98
2018-05-15T21:02:48.825Z,98149.66
2018-05-15T21:05:16.983Z,98145.12
2018-05-15T21:07:45.112Z,98147.25
2018-05-15T21:10:13.233Z,98151.52
2018-05-15T21:12:41.370Z,98148.85
2018-05-15T21:15:10.128Z,98148.20
2018-05-15T21:17:38.219Z,98149.95
2018-05-15T21:20:06.349Z,98151.41
2018-05-15T21:22:34.491Z,98153.55
2018-05-15T21:25:02.633Z,98151.53
2018-05-15T21:27:30.781Z,98150.07
2018-05-15T21:29:58.920Z,98147.92
2018-05-15T21:32:27.086Z,98148.74
2018-05-15T21:34:55.218Z,98144.20
2018-05-15T21:37:23.377Z,98151.13
2018-05-15T21:39:51.541Z,98155.02
2018-05-15T21:42:19.710Z,98151.00
2018-05-15T21:44:47.839Z,98149.64
2018-05-15T21:47:16.015Z,98152.20
2018-05-15T21:49:44.145Z,98153.53
2018-05-15T21:52:12.281Z,98159.42
2018-05-15T21:54:40.426Z,98157.67
2018-05-15T21:57:08.590Z,98156.61
2018-05-15T21:59:36.733Z,98151.79
2018-05-15T22:02:04.880Z,98161.44
2018-05-15T22:04:33.017Z,98157.14
2018-05-15T22:07:01.162Z,98158.36
2018-05-15T22:09:29.297Z,98152.86
2018-05-15T22:12:09.275Z,98160.35
2018-05-15T22:14:49.204Z,98157.27
2018-05-15T22:17:29.061Z,98157.56
2018-05-15T22:20:09.136Z,98159.03
2018-05-15T22:22:36.729Z,98155.41
2018-05-15T22:25:06.295Z,98156.64
2018-05-15T22:27:34.422Z,98159.03
2018-05-15T22:30:02.578Z,98164.66
2018-05-15T22:32:30.742Z,98158.91
2018-05-15T22:34:58.888Z,98155.83
2018-05-15T22:37:27.017Z,98157.28
2018-05-15T22:39:55.151Z,98155.02
2018-05-15T22:42:23.298Z,98153.96
2018-05-15T22:44:51.433Z,98150.19
2018-05-15T22:47:19.573Z,98153.16
2018-05-15T22:49:47.761Z,98143.37
2018-05-15T22:52:15.900Z,98149.41
2018-05-15T22:54:44.025Z,98143.27
2018-05-15T22:57:12.188Z,98138.16
2018-05-15T22:59:40.316Z,98136.98
2018-05-15T23:02:08.449Z,98134.95
2018-05-15T23:04:36.599Z,98129.33
2018-05-15T23:07:07.800Z,98126.94
2018-05-15T23:09:35.940Z,98123.47
2018-05-15T23:12:04.062Z,98121.20
2018-05-15T23:14:32.186Z,98118.66
2018-05-15T23:17:00.917Z,98123.48
2018-05-15T23:19:29.047Z,98120.95
2018-05-15T23:21:57.167Z,98117.34
2018-05-15T23:24:25.307Z,98124.70
2018-05-15T23:26:53.428Z,98120.70
2018-05-15T23:29:21.574Z,98118.96
2018-05-15T23:31:49.692Z,98117.10
2018-05-15T23:34:17.818Z,98112.97
2018-05-15T23:36:45.943Z,98109.50
2018-05-15T23:39:14.063Z,98113.89
2018-05-15T23:41:42.187Z,98111.63
2018-05-15T23:44:10.321Z,98112.16
2018-05-15T23:46:38.474Z,98114.72
2018-05-15T23:49:06.628Z,98113.65
2018-05-15T23:51:34.741Z,98116.33
2018-05-15T23:54:02.871Z,98112.42
2018-05-15T23:56:31.000Z,98111.36
2018-05-15T23:58:59.120Z,98112.04
